»·PEaware :: N3452E KPDX-KRNO

N3452E :: KPDX-KRNO

FLIGHT INFORMATION

Flight Status: Arrived
Operator: Privately registered:
United States
More flights under this callsign
Pilot: John C. (27555)
Aircraft: CANADAIR CL-600 CHALLENGER
(CL60)
More flights by this aircraft type
Origin: KPDX Portland Intl
United States
Destination: KRNO Reno/Tahoe Intl
United States
More flights between these airports :: More routes between these airports
Route: PTLD2 UBG LKV HARTT EELZA2
File this flight plan on PilotEdge
Remarks:
Altitude:
(Current/Filed)
37,000ft
Speed:
(Current/Filed)
476kts
Departed: 02-Apr-22 08:13 PM
Arrived: 02-Apr-22 09:19 PM
Distance/Time
Traveled:
386nm/1:06
Distance/Time
To Go:
Arrived

Flight Plot

Page will automatically refresh every two minutes.

Flight plan parsing failed; only flown route is shown


Map Options




Map Legend


Flown Route
Filed Route
Departure Airport
Arrival Airport
Navaid (VOR, NDB)
Fix

Horizontal Profiles

Position Reports

Time Latitude Longitude Heading Altitude Ground
Speed
02-Apr-22 19:14 45.585028 -122.578252 297 24ft 0kts
02-Apr-22 19:14 45.585028 -122.578252 297 24ft 0kts
02-Apr-22 19:15 45.585028 -122.578252 297 24ft 0kts
02-Apr-22 19:17 45.585028 -122.578252 297 24ft 0kts
02-Apr-22 19:18 45.585028 -122.578252 297 24ft 0kts
02-Apr-22 19:18 45.585028 -122.578252 297 24ft 0kts
02-Apr-22 19:22 45.585028 -122.578252 297 24ft 0kts
02-Apr-22 19:22 45.585028 -122.578252 297 24ft 0kts
02-Apr-22 19:23 45.585028 -122.578252 297 24ft 0kts
02-Apr-22 19:24 45.585028 -122.578252 297 24ft 0kts
02-Apr-22 19:25 45.585028 -122.578252 297 24ft 0kts
02-Apr-22 19:26 45.585028 -122.578252 297 24ft 0kts
02-Apr-22 19:27 45.585028 -122.578252 297 24ft 0kts
02-Apr-22 19:28 45.585028 -122.578252 297 24ft 0kts
02-Apr-22 19:29 45.585028 -122.578252 297 24ft 0kts
02-Apr-22 19:30 45.585028 -122.578252 297 24ft 0kts
02-Apr-22 19:31 45.585028 -122.578252 297 24ft 0kts
02-Apr-22 19:32 45.585028 -122.578252 297 24ft 0kts
02-Apr-22 19:33 45.585028 -122.578252 297 24ft 0kts
02-Apr-22 19:34 45.585028 -122.578252 297 24ft 0kts
02-Apr-22 19:35 45.585028 -122.578252 297 24ft 0kts
02-Apr-22 19:36 45.585028 -122.578252 297 24ft 0kts
02-Apr-22 19:37 45.585028 -122.578252 297 24ft 0kts
02-Apr-22 19:38 45.585028 -122.578252 297 24ft 0kts
02-Apr-22 19:39 45.585028 -122.578252 297 24ft 0kts
02-Apr-22 19:40 45.585028 -122.578252 297 24ft 0kts
02-Apr-22 19:41 45.585028 -122.578252 297 24ft 0kts
02-Apr-22 19:42 45.585028 -122.578252 297 24ft 0kts
02-Apr-22 19:43 45.585028 -122.578252 297 24ft 0kts
02-Apr-22 19:44 45.585028 -122.578252 297 24ft 0kts
02-Apr-22 19:45 45.585028 -122.578252 297 24ft 0kts
02-Apr-22 19:46 45.585028 -122.578252 297 24ft 0kts
02-Apr-22 19:47 45.585028 -122.578252 297 24ft 0kts
02-Apr-22 19:48 45.585028 -122.578252 297 24ft 0kts
02-Apr-22 19:49 45.585028 -122.578252 297 24ft 0kts
02-Apr-22 19:50 45.585028 -122.578252 297 24ft 0kts
02-Apr-22 19:51 45.585028 -122.578252 297 24ft 0kts
02-Apr-22 19:52 45.585028 -122.578252 297 24ft 0kts
02-Apr-22 19:53 45.585028 -122.578252 297 24ft 0kts
02-Apr-22 19:54 45.585028 -122.578252 297 24ft 0kts
02-Apr-22 19:55 45.585028 -122.578252 297 24ft 0kts
02-Apr-22 19:56 45.585028 -122.578252 297 24ft 0kts
02-Apr-22 19:57 45.585028 -122.578252 297 24ft 0kts
02-Apr-22 19:58 45.585028 -122.578252 297 24ft 0kts
02-Apr-22 19:59 45.585028 -122.578252 297 24ft 0kts
02-Apr-22 20:00 45.585028 -122.578252 297 24ft 0kts
02-Apr-22 20:01 45.585028 -122.578252 297 24ft 0kts
02-Apr-22 20:02 45.585028 -122.578252 297 24ft 0kts
02-Apr-22 20:03 45.585028 -122.578252 297 24ft 0kts
02-Apr-22 20:04 45.585049 -122.578300 305 24ft 1kts
02-Apr-22 20:05 45.586032 -122.578691 352 24ft 3kts
02-Apr-22 20:06 45.587791 -122.580847 298 24ft 14kts
02-Apr-22 20:07 45.589957 -122.586467 300 24ft 18kts
02-Apr-22 20:08 45.592285 -122.592374 298 24ft 16kts
02-Apr-22 20:09 45.593858 -122.596454 297 27ft 5kts
02-Apr-22 20:10 45.594442 -122.597557 33 27ft 0kts
02-Apr-22 20:11 45.594767 -122.597128 49 27ft 6kts
02-Apr-22 20:12 45.585958 -122.570484 101 509ft 182kts
02-Apr-22 20:13 45.576004 -122.492438 99 2459ft 204kts
02-Apr-22 20:14 45.566468 -122.411895 99 4571ft 209kts
02-Apr-22 20:15 45.526384 -122.393302 229 7584ft 219kts
02-Apr-22 20:16 45.497981 -122.469168 247 10624ft 219kts
02-Apr-22 20:17 45.472585 -122.546008 215 13618ft 222kts
02-Apr-22 20:18 45.412526 -122.502895 157 17267ft 291kts
02-Apr-22 20:19 45.337181 -122.451110 158 21328ft 316kts
02-Apr-22 20:20 45.256600 -122.393817 159 24874ft 336kts
02-Apr-22 20:21 45.167932 -122.341410 163 27780ft 358kts
02-Apr-22 20:22 45.073291 -122.286812 164 30168ft 381kts
02-Apr-22 20:23 44.973844 -122.229599 164 32469ft 392kts
02-Apr-22 20:24 44.871381 -122.170777 164 34468ft 401kts
02-Apr-22 20:25 44.769374 -122.112361 164 36585ft 393kts
02-Apr-22 20:26 44.665427 -122.053362 164 37160ft 422kts
02-Apr-22 20:27 44.551435 -121.988904 163 37155ft 460kts
02-Apr-22 20:28 44.429095 -121.919895 163 37159ft 488kts
02-Apr-22 20:29 44.302002 -121.848405 163 37169ft 493kts
02-Apr-22 20:30 44.175095 -121.777357 163 37172ft 492kts
02-Apr-22 20:31 44.048120 -121.706657 163 37172ft 491kts
02-Apr-22 20:32 43.921260 -121.636373 163 37170ft 491kts
02-Apr-22 20:33 43.794431 -121.566406 163 37170ft 491kts
02-Apr-22 20:34 43.667229 -121.496613 163 37170ft 491kts
02-Apr-22 20:35 43.540686 -121.427508 163 37171ft 491kts
02-Apr-22 20:36 43.413716 -121.358410 163 37171ft 492kts
02-Apr-22 20:37 43.286327 -121.289486 164 37171ft 491kts
02-Apr-22 20:38 43.159411 -121.221088 164 37168ft 490kts
02-Apr-22 20:39 43.032696 -121.153152 164 37158ft 490kts
02-Apr-22 20:40 42.905932 -121.085442 164 37159ft 490kts
02-Apr-22 20:41 42.778880 -121.017879 165 37160ft 489kts
02-Apr-22 20:42 42.652623 -120.951090 165 37157ft 489kts
02-Apr-22 20:43 42.525933 -120.884313 165 37153ft 489kts
02-Apr-22 20:44 42.399363 -120.817893 165 37153ft 488kts
02-Apr-22 20:45 42.272957 -120.751889 165 37154ft 487kts
02-Apr-22 20:46 42.146755 -120.686238 165 37151ft 487kts
02-Apr-22 20:47 42.020901 -120.621055 165 37149ft 486kts
02-Apr-22 20:48 41.894706 -120.555838 165 37140ft 485kts
02-Apr-22 20:49 41.768674 -120.491242 165 37141ft 485kts
02-Apr-22 20:50 41.642741 -120.426927 165 37142ft 485kts
02-Apr-22 20:51 41.517039 -120.362931 166 37139ft 485kts
02-Apr-22 20:52 41.390782 -120.298913 166 37144ft 483kts
02-Apr-22 20:53 41.265724 -120.235792 166 37142ft 482kts
02-Apr-22 20:54 41.140370 -120.172759 167 37140ft 481kts
02-Apr-22 20:55 41.015105 -120.109978 167 37138ft 481kts
02-Apr-22 20:56 40.891166 -120.048087 167 37141ft 471kts
02-Apr-22 20:57 40.767527 -119.999706 175 35340ft 459kts
02-Apr-22 20:58 40.645193 -119.959471 176 32936ft 448kts
02-Apr-22 20:59 40.526885 -119.921338 177 30629ft 432kts
02-Apr-22 21:00 40.412108 -119.884841 176 28370ft 420kts
02-Apr-22 21:01 40.300375 -119.849339 175 26185ft 409kts
02-Apr-22 21:02 40.191840 -119.814803 174 24041ft 396kts
02-Apr-22 21:03 40.087006 -119.781642 173 22089ft 383kts
02-Apr-22 21:04 39.988177 -119.730809 157 20038ft 382kts
02-Apr-22 21:05 39.895438 -119.680256 180 18080ft 344kts
02-Apr-22 21:06 39.802905 -119.675805 182 16209ft 324kts
02-Apr-22 21:07 39.718051 -119.672959 181 14604ft 291kts
02-Apr-22 21:08 39.640618 -119.667097 177 13116ft 264kts
02-Apr-22 21:09 39.570452 -119.660067 176 11774ft 251kts
02-Apr-22 21:10 39.501940 -119.656488 181 11018ft 244kts
02-Apr-22 21:11 39.433288 -119.654124 177 10145ft 247kts
02-Apr-22 21:12 39.377018 -119.662976 229 8570ft 178kts
02-Apr-22 21:13 39.360406 -119.713030 274 6666ft 149kts
02-Apr-22 21:14 39.380814 -119.754931 351 6312ft 152kts
02-Apr-22 21:15 39.419467 -119.761724 353 5255ft 129kts
02-Apr-22 21:16 39.454993 -119.766733 358 5132ft 130kts
02-Apr-22 21:17 39.490620 -119.766785 359 4444ft 125kts
02-Apr-22 21:18 39.509607 -119.766826 359 4423ft 25kts
02-Apr-22 21:19 39.510990 -119.765550 94 4423ft 0kts
02-Apr-22 21:20 39.510990 -119.765550 94 4423ft 0kts
02-Apr-22 21:21 39.510462 -119.765310 204 4423ft 7kts
02-Apr-22 21:22 39.507363 -119.765693 179 4423ft 11kts
02-Apr-22 21:23 39.503012 -119.765718 180 4423ft 18kts
02-Apr-22 21:24 39.500682 -119.764369 170 4423ft 2kts
02-Apr-22 21:25 39.500636 -119.764363 174 4423ft 0kts

Navigation Log

Ident Type
Flight plan parsing failed, navigation log unavailable